Terminal Aerodrome Forecast
Issued by NWS Newport/Morehead City, NC

Home | Current Version | Previous Version | Graphics & Text | Print | Product List | Glossary On
Versions: 1 2 3 4 5 6 7 8 9 10 11 12 13 14 15 16 17 18 19 20 21 22 23
723
FTUS42 KMHX 040232 AAA
TAFEWN
TAF AMD
KEWN 040232Z 0403/0424 VRB06KT P6SM BKN007
     FM040301 21004KT P6SM VCTS SCT025 BKN050CB
     FM040800 VRB03KT 3SM BR BKN007
     FM041200 26004KT P6SM BKN025
     FM041600 25008KT P6SM VCSH BKN035=

USA.gov is the U.S. government's official web portal to all federal, state and local government web resources and services.